Time;durP1;ratioP1;P1;durP2;ratioP2;P2;SDS_P1;SDS_P2;PMS_P1;PMS_P2;Temp;Humidity;BMP_temperature;BMP_pressure;BME280_temperature;BME280_humidity;BME280_pressure;Samples;Min_cycle;Max_cycle;Signal;HPM_P1;HPM_P2
2022/05/20 00:00:44;;;;;;;3.57;3.13;;;21.40;99.90;;;;;;5029460;28;20219;-70
2022/05/20 00:03:10;;;;;;;4.20;3.90;;;21.40;99.90;;;;;;5033444;28;20886;-70
2022/05/20 00:05:36;;;;;;;5.60;4.20;;;21.30;99.90;;;;;;5040817;28;20458;-68
2022/05/20 00:08:03;;;;;;;4.40;4.10;;;21.40;99.90;;;;;;5033400;28;20461;-70
2022/05/20 00:10:29;;;;;;;3.80;3.50;;;21.40;99.90;;;;;;5049143;28;20268;-69
2022/05/20 00:12:55;;;;;;;4.77;4.27;;;21.40;99.90;;;;;;5035617;28;20459;-70
2022/05/20 00:15:24;;;;;;;8.10;3.90;;;21.50;99.90;;;;;;5039515;28;20259;-69
2022/05/20 00:17:50;;;;;;;4.87;4.10;;;21.40;99.90;;;;;;5036270;28;20234;-69
2022/05/20 00:20:18;;;;;;;4.40;3.97;;;21.40;99.90;;;;;;5052051;28;20462;-69
2022/05/20 00:22:45;;;;;;;4.17;3.80;;;21.30;99.90;;;;;;5045959;28;20231;-69
2022/05/20 00:28:00;;;;;;;4.00;3.60;;;21.40;99.90;;;;;;5047370;28;20508;-68
2022/05/20 00:30:25;;;;;;;4.80;3.87;;;21.30;99.90;;;;;;5066781;28;20973;-69
2022/05/20 00:32:52;;;;;;;5.20;4.10;;;21.30;99.90;;;;;;5050441;28;20246;-70
2022/05/20 00:35:18;;;;;;;4.90;4.50;;;21.30;99.90;;;;;;5050940;28;20630;-72
2022/05/20 00:37:44;;;;;;;5.10;4.60;;;21.20;99.90;;;;;;5067879;28;20486;-69
2022/05/20 00:40:15;;;;;;;5.87;5.33;;;21.10;99.90;;;;;;5051520;28;21004;-70
2022/05/20 00:42:42;;;;;;;6.00;5.40;;;21.10;99.90;;;;;;5051440;28;20973;-71
2022/05/20 00:45:08;;;;;;;7.70;4.50;;;21.10;99.90;;;;;;5050411;28;20460;-70
2022/05/20 00:47:34;;;;;;;7.47;4.50;;;21.10;99.90;;;;;;5051262;28;20537;-69
2022/05/20 00:50:06;;;;;;;8.43;5.17;;;21.00;99.90;;;;;;5052412;28;20545;-69
2022/05/20 00:52:34;;;;;;;5.60;4.07;;;21.10;99.90;;;;;;5053036;28;20274;-70
2022/05/20 00:55:06;;;;;;;4.87;4.47;;;21.10;99.90;;;;;;5043168;28;20467;-70
2022/05/20 00:57:43;;;;;;;6.10;5.40;;;21.20;99.90;;;;;;5058658;28;21048;-73
2022/05/20 01:00:25;;;;;;;5.80;5.20;;;21.10;99.90;;;;;;5034994;28;21002;-70
2022/05/20 01:02:54;;;;;;;4.70;4.30;;;21.10;99.90;;;;;;5045547;28;20915;-69
2022/05/20 01:05:26;;;;;;;5.07;4.60;;;21.00;99.90;;;;;;5051090;28;20970;-70
2022/05/20 01:07:53;;;;;;;4.90;4.40;;;21.00;99.90;;;;;;5038820;28;21047;-69
2022/05/20 01:10:19;;;;;;;6.00;5.50;;;21.10;99.90;;;;;;5051340;28;20446;-70
2022/05/20 01:12:50;;;;;;;5.63;5.13;;;21.00;99.90;;;;;;5039046;28;20981;-70
2022/05/20 01:15:16;;;;;;;5.57;4.97;;;20.90;99.90;;;;;;5024169;28;20514;-68
2022/05/20 01:17:41;;;;;;;6.57;6.07;;;20.70;99.90;;;;;;5048603;28;20973;-69
2022/05/20 01:20:12;;;;;;;7.90;7.13;;;20.80;99.90;;;;;;5040669;28;20882;-69
2022/05/20 01:22:53;;;;;;;6.60;6.03;;;20.80;99.90;;;;;;5065998;28;20251;-69
2022/05/20 01:25:21;;;;;;;9.57;7.70;;;20.80;99.90;;;;;;5049040;28;20449;-70
2022/05/20 01:27:47;;;;;;;7.27;5.77;;;20.70;99.90;;;;;;5045661;28;20485;-70
2022/05/20 01:30:17;;;;;;;7.33;6.50;;;20.70;99.90;;;;;;5059404;28;20451;-70
2022/05/20 01:32:44;;;;;;;7.73;6.17;;;20.50;99.90;;;;;;5044675;28;20489;-69
2022/05/20 01:35:15;;;;;;;9.50;7.00;;;20.60;99.90;;;;;;5050700;28;20868;-69
2022/05/20 01:37:40;;;;;;;8.80;6.17;;;20.60;99.90;;;;;;5030173;28;20490;-70
2022/05/20 01:40:07;;;;;;;7.27;6.07;;;20.60;99.90;;;;;;5030832;28;20486;-68
2022/05/20 01:42:42;;;;;;;6.13;5.53;;;20.70;99.90;;;;;;5034864;28;20220;-71
2022/05/20 01:45:11;;;;;;;5.83;5.27;;;20.70;99.90;;;;;;5046978;28;20495;-70
2022/05/20 01:47:43;;;;;;;6.40;5.00;;;20.80;99.90;;;;;;5049299;28;20578;-69
2022/05/20 01:50:22;;;;;;;9.20;5.80;;;20.70;99.90;;;;;;5030631;28;23465;-71
2022/05/20 01:53:09;;;;;;;7.40;6.70;;;20.70;99.90;;;;;;5039531;28;21002;-69
2022/05/20 01:55:41;;;;;;;7.00;6.30;;;20.80;99.90;;;;;;5040144;28;20503;-69
2022/05/20 01:58:26;;;;;;;6.40;5.77;;;20.70;99.90;;;;;;5041871;28;20447;-69
2022/05/20 02:00:58;;;;;;;7.70;5.93;;;20.70;99.90;;;;;;5036730;28;20462;-70
2022/05/20 02:03:46;;;;;;;8.70;6.60;;;20.70;99.90;;;;;;5044363;28;20471;-69
2022/05/20 02:06:29;;;;;;;7.10;5.97;;;20.80;99.90;;;;;;5020756;28;20443;-69
2022/05/20 02:08:59;;;;;;;6.27;5.77;;;20.90;99.90;;;;;;5049437;28;20461;-70
2022/05/20 02:11:33;;;;;;;8.23;6.80;;;20.90;99.90;;;;;;5046053;28;20458;-70
2022/05/20 02:14:23;;;;;;;6.83;6.23;;;20.80;99.90;;;;;;5049408;28;20454;-71
2022/05/20 02:17:09;;;;;;;7.90;7.10;;;20.80;99.90;;;;;;5030395;28;20474;-69
2022/05/20 02:19:58;;;;;;;11.07;7.67;;;20.80;99.90;;;;;;5053481;28;20490;-70
2022/05/20 02:22:28;;;;;;;8.03;7.17;;;20.80;99.90;;;;;;5048383;28;20466;-69
2022/05/20 02:24:55;;;;;;;7.73;6.47;;;20.80;99.90;;;;;;5064615;28;20446;-72
2022/05/20 02:27:28;;;;;;;8.40;7.20;;;20.80;99.90;;;;;;5046601;28;20866;-70
2022/05/20 02:30:08;;;;;;;12.60;8.80;;;20.80;99.90;;;;;;5043972;28;21024;-69
2022/05/20 02:32:43;;;;;;;9.30;7.97;;;20.80;99.90;;;;;;5049792;28;20478;-71
2022/05/20 02:35:09;;;;;;;7.63;6.87;;;20.80;99.90;;;;;;5045615;28;20497;-70
2022/05/20 02:37:36;;;;;;;7.33;6.60;;;20.80;99.90;;;;;;5046185;28;20482;-69
2022/05/20 02:40:04;;;;;;;9.53;7.83;;;20.80;99.90;;;;;;5035728;28;20232;-68
2022/05/20 02:42:30;;;;;;;9.53;7.60;;;20.80;99.90;;;;;;5048273;28;20997;-69
2022/05/20 02:45:00;;;;;;;8.40;6.77;;;20.80;99.90;;;;;;5048299;28;20454;-70
2022/05/20 02:47:31;;;;;;;7.87;7.17;;;20.80;99.90;;;;;;5048874;28;20228;-69
2022/05/20 02:50:00;;;;;;;10.53;8.47;;;20.80;99.90;;;;;;5047187;28;20993;-69
2022/05/20 02:52:26;;;;;;;7.53;6.73;;;20.90;99.90;;;;;;5044124;28;20477;-70
2022/05/20 02:55:17;;;;;;;8.50;7.67;;;20.80;99.90;;;;;;5047144;28;20958;-70
2022/05/20 02:57:44;;;;;;;9.87;7.43;;;20.80;99.90;;;;;;5048494;28;20451;-71
2022/05/20 03:05:40;;;;;;;8.00;7.20;;;20.80;99.90;;;;;;5045818;28;20815;-71
2022/05/20 03:08:06;;;;;;;8.37;7.50;;;20.80;99.90;;;;;;5042942;28;20454;-71
2022/05/20 03:10:34;;;;;;;9.10;8.23;;;20.80;99.90;;;;;;5048904;28;20818;-70
2022/05/20 03:13:05;;;;;;;8.13;7.33;;;20.80;99.90;;;;;;5048438;28;20880;-70
2022/05/20 03:15:31;;;;;;;8.70;7.80;;;20.80;99.90;;;;;;5030164;28;20452;-70
2022/05/20 03:17:57;;;;;;;10.70;8.07;;;20.80;99.90;;;;;;5048466;28;20521;-70
2022/05/20 03:20:23;;;;;;;8.80;7.90;;;20.80;99.90;;;;;;5036709;28;20796;-70
2022/05/20 03:22:49;;;;;;;8.40;7.57;;;20.80;99.90;;;;;;5039344;28;20462;-68
2022/05/20 03:25:15;;;;;;;9.20;7.40;;;20.80;99.90;;;;;;5039861;28;20223;-70
2022/05/20 03:27:41;;;;;;;8.07;6.87;;;20.80;99.90;;;;;;5043937;28;20227;-70
2022/05/20 03:30:09;;;;;;;7.53;6.73;;;20.80;99.90;;;;;;5045538;28;20453;-69
2022/05/20 03:32:35;;;;;;;10.30;7.00;;;20.80;99.90;;;;;;5048644;28;20247;-70
2022/05/20 03:35:01;;;;;;;8.70;6.43;;;20.80;99.90;;;;;;5048426;28;20490;-70
2022/05/20 03:37:27;;;;;;;8.20;6.47;;;20.70;99.90;;;;;;5045596;28;20226;-68
2022/05/20 03:39:55;;;;;;;7.63;6.83;;;20.70;99.90;;;;;;5048135;28;20218;-70
2022/05/20 03:42:23;;;;;;;7.57;6.90;;;20.70;99.90;;;;;;5049547;28;20235;-69
2022/05/20 03:44:49;;;;;;;8.00;6.83;;;20.70;99.90;;;;;;5048105;28;20491;-70
2022/05/20 03:47:14;;;;;;;7.40;6.70;;;20.70;99.90;;;;;;5049052;28;20443;-69
2022/05/20 03:49:42;;;;;;;9.07;7.80;;;20.70;99.90;;;;;;5047283;28;20454;-71
2022/05/20 03:52:08;;;;;;;7.57;6.90;;;20.70;99.90;;;;;;5044053;28;20223;-69
2022/05/20 03:54:34;;;;;;;7.60;6.90;;;20.70;99.90;;;;;;5032337;28;20463;-69
2022/05/20 03:57:02;;;;;;;8.60;7.70;;;20.70;99.90;;;;;;5049569;28;20455;-69
2022/05/20 03:59:28;;;;;;;9.30;7.70;;;20.70;99.90;;;;;;5036565;28;20216;-69
2022/05/20 04:01:57;;;;;;;7.90;7.10;;;20.70;99.90;;;;;;5044138;28;21038;-68
2022/05/20 04:04:32;;;;;;;7.77;6.97;;;20.70;99.90;;;;;;5041498;28;20499;-69
2022/05/20 04:07:05;;;;;;;7.03;6.43;;;20.70;99.90;;;;;;5045595;28;20462;-70
2022/05/20 04:09:30;;;;;;;7.00;6.40;;;20.70;99.90;;;;;;5033731;28;20509;-69
2022/05/20 04:11:58;;;;;;;7.03;6.33;;;20.60;99.90;;;;;;5045781;28;20466;-69
2022/05/20 04:14:27;;;;;;;12.37;8.50;;;20.40;99.90;;;;;;5060852;28;20255;-70
2022/05/20 04:16:57;;;;;;;10.00;8.90;;;20.30;99.90;;;;;;5047427;28;20459;-69
2022/05/20 04:19:24;;;;;;;10.63;8.80;;;20.30;99.90;;;;;;5042852;28;20461;-69
2022/05/20 04:21:55;;;;;;;9.53;8.63;;;20.20;99.90;;;;;;5048600;28;20532;-69
2022/05/20 04:24:20;;;;;;;8.97;8.07;;;20.20;99.90;;;;;;5052152;28;20546;-70
2022/05/20 04:26:47;;;;;;;9.87;7.20;;;20.20;99.90;;;;;;5051104;28;20533;-69
2022/05/20 04:29:13;;;;;;;7.50;6.80;;;20.20;99.90;;;;;;5047445;28;20207;-71
2022/05/20 04:31:46;;;;;;;8.00;7.20;;;20.20;99.90;;;;;;5049296;28;20497;-71
2022/05/20 04:34:12;;;;;;;6.03;5.47;;;20.20;99.90;;;;;;5046740;28;20281;-68
2022/05/20 04:36:38;;;;;;;7.43;6.70;;;20.30;99.90;;;;;;5049558;28;20466;-68
2022/05/20 04:39:04;;;;;;;7.30;6.60;;;20.30;99.90;;;;;;5031898;28;20311;-69
2022/05/20 04:47:01;;;;;;;10.00;7.17;;;20.30;99.90;;;;;;5048502;28;20541;-71
2022/05/20 04:49:29;;;;;;;9.00;7.00;;;20.30;99.90;;;;;;5050839;28;20447;-69
2022/05/20 04:51:55;;;;;;;6.93;6.30;;;20.30;99.90;;;;;;5029782;28;21017;-69
2022/05/20 04:57:07;;;;;;;6.60;5.90;;;20.30;99.90;;;;;;5055888;28;20450;-70
2022/05/20 04:59:37;;;;;;;8.73;6.60;;;20.30;99.90;;;;;;5023517;28;20537;-68
2022/05/20 05:02:03;;;;;;;6.70;6.20;;;20.30;99.90;;;;;;5046881;28;20551;-69
2022/05/20 05:04:29;;;;;;;8.83;6.60;;;20.30;99.90;;;;;;5052183;28;20447;-70
2022/05/20 05:06:55;;;;;;;7.87;7.17;;;20.30;99.90;;;;;;5021863;28;20462;-69
2022/05/20 05:09:20;;;;;;;8.70;7.80;;;20.30;99.90;;;;;;5037860;28;20257;-69
2022/05/20 05:11:47;;;;;;;7.80;7.00;;;20.30;99.90;;;;;;5038227;28;20228;-68
2022/05/20 05:14:16;;;;;;;7.43;6.70;;;20.30;99.90;;;;;;5031528;28;20274;-69
2022/05/20 05:16:43;;;;;;;8.77;7.87;;;20.30;99.90;;;;;;5050787;28;20496;-69
2022/05/20 05:19:10;;;;;;;8.20;7.40;;;20.30;99.90;;;;;;5049727;28;20469;-69
2022/05/20 05:21:36;;;;;;;7.33;6.63;;;20.40;99.90;;;;;;5044020;28;20484;-68
2022/05/20 05:24:02;;;;;;;8.20;7.40;;;20.40;99.90;;;;;;5050296;28;20457;-69
2022/05/20 05:26:30;;;;;;;7.67;6.90;;;20.40;99.90;;;;;;5051835;28;20454;-71
2022/05/20 05:28:56;;;;;;;10.77;7.27;;;20.40;99.90;;;;;;5045242;28;20533;-69
2022/05/20 05:31:22;;;;;;;8.97;8.03;;;20.40;99.90;;;;;;5049734;28;20534;-68
2022/05/20 05:33:50;;;;;;;9.80;8.17;;;20.40;99.90;;;;;;5035039;28;20650;-70
2022/05/20 05:36:17;;;;;;;9.37;8.40;;;20.40;99.90;;;;;;5028964;28;20459;-69
2022/05/20 05:38:44;;;;;;;11.27;7.90;;;20.40;99.90;;;;;;5045032;28;20458;-71
2022/05/20 05:41:10;;;;;;;7.43;6.73;;;20.40;99.90;;;;;;5031079;28;20459;-70
2022/05/20 05:43:37;;;;;;;9.23;8.40;;;20.40;99.90;;;;;;5043693;28;20454;-71
2022/05/20 05:46:04;;;;;;;9.90;8.90;;;20.50;99.90;;;;;;5044282;28;21019;-69
2022/05/20 05:48:30;;;;;;;11.73;10.53;;;20.50;99.90;;;;;;5042225;28;20537;-69
2022/05/20 05:50:56;;;;;;;18.20;10.83;;;20.50;99.90;;;;;;5036886;28;20460;-69
2022/05/20 05:53:24;;;;;;;13.70;11.27;;;20.50;99.90;;;;;;5042287;28;20447;-69
2022/05/20 05:55:56;;;;;;;14.00;10.63;;;20.50;99.90;;;;;;5038671;28;20231;-70
2022/05/20 05:58:24;;;;;;;14.50;10.63;;;20.60;99.90;;;;;;5042274;28;20457;-71
2022/05/20 06:00:50;;;;;;;12.60;11.30;;;20.60;99.90;;;;;;5042753;28;20454;-70
2022/05/20 06:03:16;;;;;;;13.30;10.90;;;20.50;99.90;;;;;;5047543;28;20457;-70
2022/05/20 06:05:43;;;;;;;10.80;9.80;;;20.50;99.90;;;;;;5052035;28;20220;-72
2022/05/20 06:08:09;;;;;;;14.80;11.37;;;20.60;99.90;;;;;;5046046;28;20520;-69
2022/05/20 06:10:35;;;;;;;12.87;11.33;;;20.60;99.90;;;;;;5054382;28;20892;-69
2022/05/20 06:13:01;;;;;;;15.00;10.67;;;20.60;99.90;;;;;;5042461;28;20223;-69
2022/05/20 06:15:28;;;;;;;13.17;11.80;;;20.60;99.90;;;;;;5029602;28;20461;-70
2022/05/20 06:17:55;;;;;;;12.17;10.90;;;20.60;99.90;;;;;;5042690;28;20933;-69
2022/05/20 06:20:22;;;;;;;14.90;12.80;;;20.60;99.90;;;;;;5037963;28;20966;-69
2022/05/20 06:22:49;;;;;;;12.70;11.40;;;20.70;99.90;;;;;;5055218;28;20463;-68
2022/05/20 06:25:14;;;;;;;16.40;11.83;;;20.70;99.90;;;;;;5052257;28;20458;-71
2022/05/20 06:27:41;;;;;;;12.43;11.13;;;20.70;99.90;;;;;;5042268;28;20451;-70
2022/05/20 06:30:08;;;;;;;14.20;11.23;;;20.70;99.90;;;;;;5041293;28;20698;-71
2022/05/20 06:32:38;;;;;;;12.57;11.20;;;20.70;99.90;;;;;;5033632;28;20466;-72
2022/05/20 06:40:35;;;;;;;17.00;10.77;;;20.80;99.90;;;;;;5042517;28;20477;-68
2022/05/20 06:43:01;;;;;;;11.03;9.90;;;20.80;99.90;;;;;;5058040;28;20498;-69
2022/05/20 06:45:30;;;;;;;13.67;11.67;;;20.80;99.90;;;;;;5050753;28;20215;-70
2022/05/20 06:47:56;;;;;;;15.23;10.23;;;20.80;99.90;;;;;;5043265;28;20216;-66
2022/05/20 06:50:22;;;;;;;9.90;9.00;;;20.80;99.90;;;;;;5029692;28;20459;-67
2022/05/20 06:52:48;;;;;;;11.10;8.97;;;20.90;99.90;;;;;;5044330;28;20335;-70
2022/05/20 06:55:13;;;;;;;10.70;9.30;;;20.90;99.90;;;;;;5048414;28;20215;-69
2022/05/20 06:57:39;;;;;;;9.30;8.40;;;20.90;99.90;;;;;;5041437;28;20216;-68
2022/05/20 07:00:11;;;;;;;8.80;8.00;;;20.90;99.90;;;;;;5036094;28;20246;-68
2022/05/20 07:02:38;;;;;;;8.97;8.07;;;21.00;99.90;;;;;;5046372;28;20458;-68
2022/05/20 07:05:06;;;;;;;9.80;8.53;;;21.00;99.90;;;;;;5040339;28;20451;-69
2022/05/20 07:07:32;;;;;;;13.00;8.50;;;21.00;99.90;;;;;;5045956;28;20459;-70
2022/05/20 07:09:58;;;;;;;11.30;8.33;;;21.10;99.90;;;;;;5047389;28;20458;-69
2022/05/20 07:12:24;;;;;;;8.77;7.87;;;21.00;99.90;;;;;;5050001;28;20587;-69
2022/05/20 07:14:50;;;;;;;9.00;8.10;;;21.10;99.90;;;;;;5053066;28;20534;-69
2022/05/20 07:17:17;;;;;;;8.60;7.70;;;21.10;99.90;;;;;;5048421;28;20548;-69
2022/05/20 07:19:43;;;;;;;9.40;7.87;;;21.20;99.90;;;;;;5065450;28;20227;-69
2022/05/20 07:22:09;;;;;;;10.90;8.77;;;21.20;99.90;;;;;;5043943;28;20900;-69
2022/05/20 07:24:37;;;;;;;8.90;8.10;;;21.20;99.90;;;;;;5032112;28;20468;-71
2022/05/20 07:27:03;;;;;;;10.43;9.33;;;21.30;99.90;;;;;;5030506;28;20454;-70
2022/05/20 07:29:28;;;;;;;10.93;9.93;;;21.30;99.90;;;;;;5035571;28;20455;-70
2022/05/20 07:31:54;;;;;;;11.03;9.93;;;21.30;99.90;;;;;;5053283;28;21113;-69
2022/05/20 07:34:20;;;;;;;14.33;11.30;;;21.40;99.90;;;;;;5036097;28;20224;-70
2022/05/20 07:36:45;;;;;;;12.10;10.83;;;21.40;99.90;;;;;;5038892;28;20722;-69
2022/05/20 07:39:11;;;;;;;9.97;9.07;;;21.40;99.90;;;;;;5035382;28;20712;-69
2022/05/20 07:41:37;;;;;;;11.03;9.47;;;21.40;99.90;;;;;;5034463;28;20255;-69
2022/05/20 07:44:04;;;;;;;8.80;8.00;;;21.50;99.90;;;;;;5044200;28;20215;-71
2022/05/20 07:46:29;;;;;;;9.30;8.40;;;21.60;99.90;;;;;;5052145;28;20626;-71
2022/05/20 07:48:55;;;;;;;9.93;8.97;;;21.70;99.90;;;;;;5050848;28;20453;-70
2022/05/20 07:51:24;;;;;;;8.87;7.97;;;21.70;99.90;;;;;;5030272;28;20239;-70
2022/05/20 07:53:57;;;;;;;9.53;8.63;;;21.70;99.90;;;;;;5045512;28;20718;-70
2022/05/20 07:56:26;;;;;;;9.90;9.00;;;21.80;99.90;;;;;;5051818;28;20852;-69
2022/05/20 07:59:16;;;;;;;9.70;8.70;;;21.90;99.90;;;;;;5027013;28;20455;-70
2022/05/20 08:01:46;;;;;;;10.57;9.47;;;21.90;99.90;;;;;;5036477;28;20478;-70
2022/05/20 08:07:04;;;;;;;10.83;9.83;;;22.10;99.90;;;;;;5058075;28;20466;-69
2022/05/20 08:09:30;;;;;;;12.50;11.30;;;22.10;99.90;;;;;;5031317;28;20461;-71
2022/05/20 08:11:57;;;;;;;10.57;9.60;;;22.20;99.90;;;;;;5033364;28;20454;-68
2022/05/20 08:14:23;;;;;;;11.33;10.23;;;22.30;99.90;;;;;;5037383;28;20450;-69
2022/05/20 08:16:49;;;;;;;12.07;10.90;;;22.30;99.90;;;;;;5043675;28;20486;-69
2022/05/20 08:19:15;;;;;;;12.20;11.00;;;22.40;99.90;;;;;;5038645;28;20520;-70
2022/05/20 08:21:40;;;;;;;12.70;11.47;;;22.40;99.90;;;;;;5042943;28;20223;-71
2022/05/20 08:24:07;;;;;;;12.23;11.03;;;22.50;99.90;;;;;;5045479;28;20706;-70
2022/05/20 08:26:33;;;;;;;12.20;11.00;;;22.60;99.90;;;;;;5059124;28;20301;-70
2022/05/20 08:28:59;;;;;;;12.50;11.23;;;22.70;99.90;;;;;;5043446;28;20953;-70
2022/05/20 08:31:25;;;;;;;16.73;11.73;;;22.80;99.90;;;;;;5043359;28;20218;-71
2022/05/20 08:33:51;;;;;;;14.43;13.03;;;22.80;99.90;;;;;;5038736;28;20728;-70
2022/05/20 08:36:18;;;;;;;13.80;12.60;;;22.90;99.90;;;;;;5040113;28;20446;-71
2022/05/20 08:38:46;;;;;;;11.93;10.60;;;22.90;99.90;;;;;;5057742;28;20457;-70
2022/05/20 08:41:35;;;;;;;12.23;11.03;;;23.00;99.90;;;;;;5037268;28;20476;-72
2022/05/20 08:44:02;;;;;;;12.47;11.17;;;23.10;99.90;;;;;;5044395;28;20544;-70
2022/05/20 08:46:28;;;;;;;13.07;11.57;;;23.10;99.90;;;;;;5036981;28;20473;-69
2022/05/20 08:48:56;;;;;;;13.53;12.23;;;23.20;99.90;;;;;;5036237;28;20833;-72
2022/05/20 08:51:27;;;;;;;13.30;12.00;;;23.20;99.90;;;;;;5035804;28;20461;-70
2022/05/20 08:53:52;;;;;;;12.03;10.83;;;23.40;99.90;;;;;;5043102;28;20450;-70
2022/05/20 08:56:21;;;;;;;11.97;10.93;;;23.50;99.90;;;;;;5045658;28;20505;-70
2022/05/20 08:59:00;;;;;;;12.70;11.40;;;23.50;99.90;;;;;;5043668;28;20227;-71
2022/05/20 09:01:33;;;;;;;12.07;10.97;;;23.60;99.90;;;;;;5040639;28;20462;-71
2022/05/20 09:04:00;;;;;;;12.30;11.00;;;23.70;99.90;;;;;;5059755;28;20446;-69
2022/05/20 09:06:26;;;;;;;12.47;11.23;;;23.80;99.90;;;;;;5042264;28;20488;-71
2022/05/20 09:09:03;;;;;;;13.63;11.23;;;23.80;99.90;;;;;;5042469;28;20461;-70
2022/05/20 09:11:29;;;;;;;11.83;10.67;;;23.90;99.90;;;;;;5047243;28;20251;-71
2022/05/20 09:17:24;;;;;;;10.70;9.80;;;24.10;99.90;;;;;;5040810;28;20462;-70
2022/05/20 09:19:57;;;;;;;12.87;11.70;;;24.20;99.90;;;;;;5032498;28;21106;-70
2022/05/20 09:22:29;;;;;;;12.47;11.20;;;24.30;99.90;;;;;;5034794;28;20470;-74
2022/05/20 09:24:55;;;;;;;14.47;11.83;;;24.30;99.90;;;;;;5037921;28;20480;-70
2022/05/20 09:27:29;;;;;;;10.57;9.67;;;24.40;99.90;;;;;;5039644;28;20969;-71
2022/05/20 09:30:05;;;;;;;12.57;11.53;;;24.50;99.90;;;;;;5041799;28;20214;-70
2022/05/20 09:32:47;;;;;;;11.03;10.03;;;24.50;99.90;;;;;;5042884;28;20469;-70
2022/05/20 09:35:20;;;;;;;10.50;9.60;;;24.60;99.90;;;;;;5038788;28;20496;-70
2022/05/20 09:37:48;;;;;;;10.40;9.37;;;24.80;99.90;;;;;;5042259;28;20469;-72
2022/05/20 09:40:35;;;;;;;10.80;9.80;;;24.90;99.90;;;;;;5040963;28;20548;-72
2022/05/20 09:43:03;;;;;;;9.63;8.83;;;25.10;99.90;;;;;;5041873;28;20984;-71
2022/05/20 09:45:47;;;;;;;10.63;9.60;;;25.20;99.90;;;;;;5044396;28;20454;-71
2022/05/20 09:48:20;;;;;;;10.70;9.60;;;25.30;99.90;;;;;;5036357;28;20438;-71
2022/05/20 09:51:14;;;;;;;16.53;10.20;;;25.40;99.90;;;;;;5043026;28;20458;-70
2022/05/20 09:53:42;;;;;;;11.83;9.20;;;25.50;99.90;;;;;;5039504;28;20545;-70
2022/05/20 09:56:17;;;;;;;14.30;10.77;;;25.60;99.90;;;;;;5039631;28;20450;-71
2022/05/20 09:59:11;;;;;;;10.73;9.73;;;25.70;99.90;;;;;;5042722;28;20453;-71
2022/05/20 10:01:38;;;;;;;9.90;9.07;;;25.90;99.90;;;;;;5045531;28;20474;-70
2022/05/20 10:04:08;;;;;;;10.53;9.70;;;25.90;99.90;;;;;;5033621;28;20462;-71
2022/05/20 10:06:50;;;;;;;10.70;9.97;;;25.90;99.90;;;;;;5058153;28;20454;-71
2022/05/20 10:09:15;;;;;;;15.90;12.80;;;25.90;99.90;;;;;;5034045;28;20881;-73
2022/05/20 10:11:53;;;;;;;13.73;12.43;;;26.00;99.90;;;;;;5044893;28;20536;-72
2022/05/20 10:14:33;;;;;;;11.00;10.00;;;26.10;99.90;;;;;;5042475;28;20247;-71
2022/05/20 10:17:15;;;;;;;9.80;8.90;;;26.30;99.90;;;;;;5031283;28;21015;-68
2022/05/20 10:20:17;;;;;;;10.43;9.53;;;26.50;99.90;;;;;;5036114;28;20471;-71
2022/05/20 10:22:52;;;;;;;9.27;8.07;;;26.50;99.90;;;;;;5036536;28;20480;-73
2022/05/20 10:25:26;;;;;;;8.17;7.33;;;26.70;99.90;;;;;;5034972;28;20539;-74
2022/05/20 10:28:10;;;;;;;8.30;7.60;;;26.70;99.90;;;;;;5039530;28;20445;-72
2022/05/20 10:33:32;;;;;;;8.63;7.83;;;27.00;99.90;;;;;;5037937;28;20219;-71
2022/05/20 10:36:10;;;;;;;9.63;8.80;;;27.00;99.90;;;;;;5037278;28;20499;-70
2022/05/20 10:38:38;;;;;;;11.50;10.30;;;27.10;99.90;;;;;;5041725;28;20520;-70
2022/05/20 10:41:19;;;;;;;8.90;8.10;;;27.30;99.90;;;;;;5054574;28;20208;-71
2022/05/20 10:50:16;;;;;;;8.73;7.97;;;27.60;99.90;;;;;;5035886;28;20231;-70
2022/05/20 10:53:19;;;;;;;8.98;8.18;;;27.70;99.90;;;;;;5038638;28;20226;-71
2022/05/20 10:56:11;;;;;;;9.57;8.75;;;27.80;99.90;;;;;;5040161;28;20207;-72
2022/05/20 10:58:45;;;;;;;9.70;8.90;;;27.80;99.90;;;;;;5037746;28;20222;-74
2022/05/20 11:01:44;;;;;;;13.27;9.32;;;27.90;99.90;;;;;;5030031;28;20696;-72
2022/05/20 11:04:19;;;;;;;10.60;8.63;;;27.90;99.90;;;;;;5029097;28;20222;-72
2022/05/20 11:06:53;;;;;;;8.40;7.60;;;28.10;99.90;;;;;;5027566;28;20216;-70
2022/05/20 11:09:50;;;;;;;9.75;8.85;;;28.10;99.90;;;;;;5047745;28;20211;-70
2022/05/20 11:12:40;;;;;;;9.73;8.75;;;28.10;99.90;;;;;;5043383;28;20247;-75
2022/05/20 11:15:31;;;;;;;9.07;8.18;;;28.10;99.90;;;;;;5044658;28;20212;-71
2022/05/20 11:18:28;;;;;;;7.97;7.32;;;28.10;99.90;;;;;;5038733;28;20223;-71
2022/05/20 11:21:34;;;;;;;9.55;7.45;;;28.10;99.90;;;;;;5038379;28;20230;-70
2022/05/20 11:24:08;;;;;;;13.38;9.00;;;28.10;99.90;;;;;;5041697;28;20223;-72
2022/05/20 11:26:47;;;;;;;8.23;7.65;;;28.10;99.90;;;;;;5043678;28;20246;-70
2022/05/20 11:29:29;;;;;;;9.13;7.72;;;28.10;99.90;;;;;;5049184;28;20219;-72
2022/05/20 11:32:05;;;;;;;7.68;7.05;;;28.10;99.90;;;;;;5046725;28;20258;-69
2022/05/20 11:34:51;;;;;;;8.20;7.50;;;28.10;99.90;;;;;;5036561;28;20253;-70
2022/05/20 11:37:24;;;;;;;8.32;7.53;;;28.20;99.90;;;;;;5036913;28;20226;-73
2022/05/20 11:40:04;;;;;;;8.40;7.45;;;28.20;99.90;;;;;;5037846;28;20265;-71
2022/05/20 11:42:33;;;;;;;7.85;7.05;;;28.30;99.90;;;;;;5053783;28;20232;-71
2022/05/20 11:45:36;;;;;;;8.05;7.30;;;28.30;99.90;;;;;;5036336;28;20239;-72
2022/05/20 11:48:06;;;;;;;7.20;6.50;;;28.30;99.90;;;;;;5050984;28;20225;-72
2022/05/20 11:50:50;;;;;;;7.22;6.63;;;28.30;99.90;;;;;;5061142;28;20277;-71
2022/05/20 11:53:38;;;;;;;8.13;7.43;;;28.40;99.90;;;;;;5042454;28;20269;-71
2022/05/20 11:56:29;;;;;;;8.18;6.75;;;28.40;99.90;;;;;;5041179;28;20577;-73
2022/05/20 11:59:20;;;;;;;8.80;7.57;;;28.50;99.90;;;;;;5044300;28;20777;-71
2022/05/20 12:01:53;;;;;;;7.57;6.90;;;28.60;99.90;;;;;;5049215;28;20260;-73
2022/05/20 12:04:21;;;;;;;8.50;7.28;;;28.70;99.90;;;;;;5037378;28;20215;-70
2022/05/20 12:06:58;;;;;;;9.23;7.20;;;28.70;99.90;;;;;;5039779;28;20705;-71
2022/05/20 12:09:48;;;;;;;7.72;7.13;;;28.70;99.90;;;;;;5021291;28;20221;-73
2022/05/20 12:12:16;;;;;;;7.45;6.75;;;28.70;99.90;;;;;;5040436;28;20231;-74
2022/05/20 12:14:54;;;;;;;7.15;6.43;;;28.60;99.90;;;;;;5037903;28;20215;-72
2022/05/20 12:17:33;;;;;;;8.25;6.70;;;28.60;99.90;;;;;;5054569;28;20215;-72
2022/05/20 12:26:05;;;;;;;7.50;6.80;;;28.90;99.90;;;;;;5036508;28;20222;-72
2022/05/20 12:28:36;;;;;;;7.95;6.85;;;28.90;99.90;;;;;;5032284;28;20235;-72
2022/05/20 12:31:20;;;;;;;7.40;6.80;;;29.00;99.90;;;;;;5033029;28;20600;-71
2022/05/20 12:33:59;;;;;;;6.03;5.57;;;29.00;99.90;;;;;;5033524;28;20281;-70
2022/05/20 12:36:28;;;;;;;8.38;6.72;;;29.00;99.90;;;;;;5036183;28;20215;-73
2022/05/20 12:39:09;;;;;;;6.97;6.25;;;29.10;99.90;;;;;;5037842;28;20757;-70
2022/05/20 12:41:42;;;;;;;8.73;6.60;;;29.10;99.90;;;;;;5050211;28;20232;-70
2022/05/20 12:44:16;;;;;;;9.23;5.72;;;29.20;99.90;;;;;;5019348;28;20239;-71
2022/05/20 12:47:01;;;;;;;14.02;6.35;;;29.30;99.90;;;;;;5037956;28;20246;-71
2022/05/20 12:49:33;;;;;;;6.68;5.97;;;29.40;99.90;;;;;;5038668;28;20687;-71
2022/05/20 12:52:17;;;;;;;14.57;6.15;;;29.40;99.90;;;;;;5044102;28;20239;-72
2022/05/20 12:54:54;;;;;;;6.78;5.97;;;29.40;99.90;;;;;;5051721;28;20671;-70
2022/05/20 12:57:30;;;;;;;7.47;6.78;;;29.40;99.90;;;;;;5039421;28;20311;-72
2022/05/20 13:00:02;;;;;;;6.78;5.88;;;29.40;99.90;;;;;;5038170;28;20220;-74
2022/05/20 13:02:51;;;;;;;6.35;5.85;;;29.40;99.90;;;;;;5040316;28;20220;-71
2022/05/20 13:05:26;;;;;;;6.53;5.90;;;29.30;99.90;;;;;;5035393;28;20220;-72
2022/05/20 13:07:54;;;;;;;6.05;5.45;;;29.30;99.90;;;;;;5039660;28;20242;-72
2022/05/20 13:10:33;;;;;;;9.80;6.53;;;29.30;99.90;;;;;;5042127;28;20231;-73
2022/05/20 13:13:02;;;;;;;8.27;6.03;;;29.30;99.90;;;;;;5043958;28;20231;-70
2022/05/20 13:15:28;;;;;;;8.30;7.53;;;29.20;99.90;;;;;;5038545;28;20221;-70
2022/05/20 13:17:57;;;;;;;7.35;6.47;;;29.20;99.90;;;;;;5035999;28;20284;-73
2022/05/20 13:20:25;;;;;;;8.77;6.38;;;29.10;99.90;;;;;;5028289;28;20229;-70
2022/05/20 13:22:51;;;;;;;7.35;6.78;;;29.10;99.90;;;;;;5045935;28;20696;-74
2022/05/20 13:25:18;;;;;;;9.30;7.18;;;29.00;99.90;;;;;;5043487;28;20222;-72
2022/05/20 13:27:48;;;;;;;8.32;6.07;;;29.00;99.90;;;;;;5043167;28;20285;-72
2022/05/20 13:30:19;;;;;;;14.02;5.93;;;29.00;99.90;;;;;;5033948;28;20220;-70
2022/05/20 13:32:45;;;;;;;7.40;6.57;;;28.90;99.90;;;;;;5041066;28;20239;-72
2022/05/20 13:35:10;;;;;;;6.97;6.32;;;28.90;99.90;;;;;;5036608;28;20230;-74
2022/05/20 13:37:45;;;;;;;6.07;5.32;;;28.90;99.90;;;;;;5033061;28;20223;-72
2022/05/20 13:40:10;;;;;;;10.35;5.95;;;28.90;99.90;;;;;;5035998;28;20218;-74
2022/05/20 13:42:36;;;;;;;8.60;6.18;;;28.90;99.90;;;;;;5032133;28;20285;-73
2022/05/20 13:45:09;;;;;;;8.40;6.18;;;28.90;99.90;;;;;;5032077;28;20216;-71